createdAt,value
2022-09-30T00:00:48.625Z,8.70
2022-09-30T00:04:52.669Z,8.70
2022-09-30T00:08:55.768Z,8.70
2022-09-30T00:12:58.690Z,8.60
2022-09-30T00:17:01.371Z,8.60
2022-09-30T00:21:06.081Z,8.60
2022-09-30T00:25:09.280Z,8.60
2022-09-30T00:29:12.261Z,8.50
2022-09-30T00:33:14.967Z,8.50
2022-09-30T00:37:18.965Z,8.60
2022-09-30T00:41:22.382Z,8.60
2022-09-30T00:45:27.571Z,8.60
2022-09-30T00:49:30.258Z,8.60
2022-09-30T00:53:40.196Z,8.60
2022-09-30T00:57:42.950Z,8.60
2022-09-30T01:01:46.041Z,8.60
2022-09-30T01:05:49.314Z,8.60
2022-09-30T01:09:53.633Z,8.60
2022-09-30T01:14:00.600Z,8.50
2022-09-30T01:18:10.079Z,8.50
2022-09-30T01:22:24.163Z,8.40
2022-09-30T01:27:00.494Z,8.50
2022-09-30T01:31:11.580Z,8.50
2022-09-30T01:35:27.094Z,8.50
2022-09-30T01:39:39.625Z,8.60
2022-09-30T01:43:49.041Z,8.60
2022-09-30T01:47:59.649Z,8.50
2022-09-30T01:52:09.506Z,8.50
2022-09-30T01:56:18.338Z,8.50
2022-09-30T02:00:21.254Z,8.60
2022-09-30T02:04:32.465Z,8.60
2022-09-30T02:08:41.476Z,8.60
2022-09-30T02:12:50.981Z,8.60
2022-09-30T02:16:59.425Z,8.60
2022-09-30T02:21:06.273Z,8.60
2022-09-30T02:25:11.145Z,8.50
2022-09-30T02:29:18.637Z,8.50
2022-09-30T02:33:26.601Z,8.50
2022-09-30T02:37:36.344Z,8.50
2022-09-30T02:41:45.727Z,8.40
2022-09-30T02:45:56.809Z,8.30
2022-09-30T02:50:07.024Z,8.30
2022-09-30T02:54:20.266Z,8.30
2022-09-30T02:58:25.981Z,8.20
2022-09-30T03:02:29.598Z,8.10
2022-09-30T03:06:33.374Z,8.00
2022-09-30T03:10:37.547Z,8.00
2022-09-30T03:15:04.868Z,7.80
2022-09-30T03:19:22.088Z,7.80
2022-09-30T03:23:40.650Z,7.80
2022-09-30T03:27:52.554Z,7.80
2022-09-30T03:32:07.436Z,7.80
2022-09-30T03:36:21.686Z,7.80
2022-09-30T03:40:31.897Z,7.80
2022-09-30T03:44:42.638Z,7.80
2022-09-30T03:48:47.558Z,7.80
2022-09-30T03:52:51.075Z,7.80
2022-09-30T03:56:54.220Z,7.70
2022-09-30T04:00:59.071Z,7.70
2022-09-30T04:05:01.825Z,7.70
2022-09-30T04:09:04.714Z,7.70
2022-09-30T04:13:07.482Z,7.70
2022-09-30T04:17:11.640Z,7.60
2022-09-30T04:21:15.583Z,7.60
2022-09-30T04:25:18.315Z,7.60
2022-09-30T04:29:21.028Z,7.60
2022-09-30T04:33:25.150Z,7.70
2022-09-30T04:37:27.835Z,7.60
2022-09-30T04:41:32.192Z,7.70
2022-09-30T04:45:34.935Z,7.70
2022-09-30T04:49:39.008Z,7.70
2022-09-30T04:53:42.253Z,7.70
2022-09-30T04:57:45.690Z,7.80
2022-09-30T05:01:48.438Z,7.70
2022-09-30T05:05:52.525Z,7.70
2022-09-30T05:09:55.202Z,7.70
2022-09-30T05:13:57.902Z,7.70
2022-09-30T05:18:01.831Z,7.70
2022-09-30T05:22:05.843Z,7.70
2022-09-30T05:26:12.301Z,7.70
2022-09-30T05:30:15.743Z,7.60
2022-09-30T05:34:18.447Z,7.60
2022-09-30T05:38:22.624Z,7.70
2022-09-30T05:42:25.441Z,7.70
2022-09-30T05:46:29.101Z,7.70
2022-09-30T05:50:32.326Z,7.70
2022-09-30T05:54:36.384Z,7.60
2022-09-30T05:58:40.579Z,7.70
2022-09-30T06:02:43.353Z,7.90
2022-09-30T06:06:47.694Z,7.90
2022-09-30T06:10:52.005Z,7.90
2022-09-30T06:14:54.698Z,7.90
2022-09-30T06:18:57.414Z,7.70
2022-09-30T06:23:01.195Z,7.60
2022-09-30T06:27:05.414Z,7.90
2022-09-30T06:31:08.481Z,8.00
2022-09-30T06:35:11.236Z,8.10
2022-09-30T06:39:14.084Z,8.20
2022-09-30T06:43:18.128Z,8.30
2022-09-30T06:47:25.681Z,8.40
2022-09-30T06:51:33.152Z,8.60
2022-09-30T06:55:38.994Z,8.80
2022-09-30T06:59:44.532Z,8.80
2022-09-30T07:03:51.474Z,8.80
2022-09-30T07:07:57.246Z,8.80
2022-09-30T07:11:59.922Z,8.80
2022-09-30T07:16:04.104Z,8.90
2022-09-30T07:20:08.192Z,9.00
2022-09-30T07:24:11.605Z,9.20
2022-09-30T07:28:14.265Z,9.40
2022-09-30T07:32:19.454Z,9.80
2022-09-30T07:36:32.233Z,10.00
2022-09-30T07:40:36.030Z,10.10
2022-09-30T07:44:43.633Z,10.40
2022-09-30T07:48:51.500Z,10.70
2022-09-30T07:52:55.858Z,11.00
2022-09-30T07:57:14.907Z,11.10
2022-09-30T08:01:17.724Z,11.20
2022-09-30T08:05:21.835Z,11.40
2022-09-30T08:09:26.460Z,11.60
2022-09-30T08:13:29.374Z,11.80
2022-09-30T08:17:32.096Z,12.10
2022-09-30T08:21:36.150Z,12.20
2022-09-30T08:25:38.932Z,11.90
2022-09-30T08:30:00.107Z,11.60
2022-09-30T08:34:04.687Z,11.70
2022-09-30T08:38:08.710Z,11.80
2022-09-30T08:42:39.381Z,11.70
2022-09-30T08:46:47.974Z,11.80
2022-09-30T08:51:03.047Z,12.50
2022-09-30T08:55:09.314Z,13.00
2022-09-30T08:59:32.397Z,13.00
2022-09-30T09:03:35.150Z,14.90
2022-09-30T09:07:47.142Z,18.90
2022-09-30T09:12:03.052Z,17.70
2022-09-30T09:16:11.945Z,19.90
2022-09-30T09:20:17.589Z,21.30
2022-09-30T09:24:23.294Z,19.60
2022-09-30T09:28:36.829Z,18.00
2022-09-30T09:32:39.776Z,18.50
2022-09-30T09:36:55.941Z,20.80
2022-09-30T09:41:08.558Z,19.60
2022-09-30T09:45:22.750Z,21.90
2022-09-30T09:49:33.283Z,19.70
2022-09-30T09:53:45.895Z,17.80
2022-09-30T09:57:48.663Z,17.00
2022-09-30T10:01:54.546Z,16.60
2022-09-30T10:06:03.423Z,16.20
2022-09-30T10:10:09.269Z,15.80
2022-09-30T10:14:17.600Z,15.20
2022-09-30T10:18:26.946Z,18.50
2022-09-30T10:22:31.925Z,18.00
2022-09-30T10:26:48.573Z,16.60
2022-09-30T10:30:56.089Z,15.70
2022-09-30T10:35:04.125Z,15.20
2022-09-30T10:39:09.188Z,14.90
2022-09-30T10:43:24.452Z,14.50
2022-09-30T10:47:32.569Z,14.40
2022-09-30T10:51:40.471Z,14.40
2022-09-30T10:55:45.294Z,14.50
2022-09-30T10:59:48.323Z,14.60
2022-09-30T11:04:01.602Z,14.70
2022-09-30T11:08:14.634Z,14.60
2022-09-30T11:12:22.874Z,14.10
2022-09-30T11:16:32.348Z,14.20
2022-09-30T11:20:38.973Z,15.20
2022-09-30T11:24:46.024Z,16.10
2022-09-30T11:29:05.422Z,15.70
2022-09-30T11:33:25.057Z,14.60
2022-09-30T11:37:40.828Z,14.00
2022-09-30T11:41:51.678Z,14.00
2022-09-30T11:46:25.160Z,14.40
2022-09-30T11:50:42.486Z,14.80
2022-09-30T11:55:01.693Z,14.90
2022-09-30T11:59:14.358Z,15.30
2022-09-30T12:03:21.618Z,16.20
2022-09-30T12:07:33.025Z,16.90
2022-09-30T12:11:44.279Z,18.20
2022-09-30T12:15:51.335Z,18.20
2022-09-30T12:19:57.087Z,18.50
2022-09-30T12:24:07.254Z,18.00
2022-09-30T12:28:40.033Z,16.90
2022-09-30T12:33:10.648Z,16.60
2022-09-30T12:37:27.110Z,19.10
2022-09-30T12:41:43.316Z,17.80
2022-09-30T12:46:13.536Z,16.80
2022-09-30T12:50:21.459Z,15.50
2022-09-30T12:54:28.038Z,15.30
2022-09-30T12:58:32.634Z,15.10
2022-09-30T13:02:40.199Z,15.00
2022-09-30T13:07:17.431Z,14.80
2022-09-30T13:11:44.168Z,14.70
2022-09-30T13:15:47.840Z,15.00
2022-09-30T13:19:52.608Z,15.20
2022-09-30T13:23:58.437Z,15.40
2022-09-30T13:28:29.743Z,15.30
2022-09-30T13:32:37.091Z,15.20
2022-09-30T13:36:42.746Z,15.10
2022-09-30T13:41:01.783Z,15.00
2022-09-30T13:45:11.043Z,14.80
2022-09-30T13:49:20.782Z,14.70
2022-09-30T13:53:29.845Z,14.80
2022-09-30T13:57:42.282Z,15.10
2022-09-30T14:01:57.251Z,15.60
2022-09-30T14:06:08.394Z,15.80
2022-09-30T14:10:30.646Z,15.90
2022-09-30T14:15:02.262Z,15.70
2022-09-30T14:19:30.101Z,15.50
2022-09-30T14:23:32.937Z,15.30
2022-09-30T14:28:05.264Z,15.10
2022-09-30T14:32:14.590Z,14.80
2022-09-30T14:36:21.727Z,14.60
2022-09-30T14:40:27.210Z,14.40
2022-09-30T14:44:33.809Z,14.20
2022-09-30T14:48:42.114Z,14.00
2022-09-30T14:52:46.674Z,13.90
2022-09-30T14:56:50.884Z,13.90
2022-09-30T15:01:07.896Z,13.90
2022-09-30T15:05:14.529Z,13.90
2022-09-30T15:09:18.602Z,13.90
2022-09-30T15:13:24.672Z,14.00
2022-09-30T15:17:29.411Z,14.00
2022-09-30T15:21:34.809Z,13.90
2022-09-30T15:25:38.671Z,13.90
2022-09-30T15:29:54.871Z,13.90
2022-09-30T15:34:06.182Z,13.80
2022-09-30T15:38:16.840Z,13.80
2022-09-30T15:42:31.862Z,13.80
2022-09-30T15:46:38.442Z,13.70
2022-09-30T15:50:43.522Z,13.60
2022-09-30T15:54:47.838Z,13.50
2022-09-30T15:58:56.921Z,13.40
2022-09-30T16:03:09.105Z,13.30
2022-09-30T16:07:17.980Z,13.20
2022-09-30T16:11:27.215Z,13.20
2022-09-30T16:15:30.127Z,13.10
2022-09-30T16:19:33.529Z,13.10
2022-09-30T16:23:38.242Z,13.00
2022-09-30T16:27:42.298Z,13.00
2022-09-30T16:31:46.689Z,12.90
2022-09-30T16:35:49.549Z,12.90
2022-09-30T16:39:52.302Z,12.80
2022-09-30T16:43:56.435Z,12.80
2022-09-30T16:48:01.465Z,12.70
2022-09-30T16:52:06.038Z,12.70
2022-09-30T16:56:15.130Z,12.70
2022-09-30T17:00:19.750Z,12.60
2022-09-30T17:04:22.443Z,12.60
2022-09-30T17:08:25.122Z,12.60
2022-09-30T17:12:27.790Z,12.60
2022-09-30T17:16:32.201Z,12.50
2022-09-30T17:20:35.725Z,12.50
2022-09-30T17:24:38.412Z,12.50
2022-09-30T17:28:41.203Z,12.50
2022-09-30T17:32:45.469Z,12.50
2022-09-30T17:36:48.203Z,12.50
2022-09-30T17:41:04.818Z,12.50
2022-09-30T17:45:08.387Z,12.40
2022-09-30T17:49:13.805Z,12.40
2022-09-30T17:53:18.867Z,12.40
2022-09-30T17:57:22.186Z,12.40
2022-09-30T18:01:25.075Z,12.40
2022-09-30T18:05:29.197Z,12.30
2022-09-30T18:09:33.002Z,12.30
2022-09-30T18:13:35.686Z,12.30
2022-09-30T18:17:38.358Z,12.30
2022-09-30T18:21:42.399Z,12.20
2022-09-30T18:25:45.252Z,12.20
2022-09-30T18:29:47.953Z,12.20
2022-09-30T18:33:51.730Z,12.20
2022-09-30T18:37:55.846Z,12.20
2022-09-30T18:42:00.397Z,12.10
2022-09-30T18:46:03.199Z,12.10
2022-09-30T18:50:07.019Z,12.10
2022-09-30T18:54:13.202Z,12.10
2022-09-30T18:58:17.284Z,12.10
2022-09-30T19:02:20.683Z,12.00
2022-09-30T19:06:23.786Z,11.90
2022-09-30T19:10:27.886Z,11.90
2022-09-30T19:14:31.043Z,11.90
2022-09-30T19:18:33.935Z,11.80
2022-09-30T19:22:37.230Z,11.80
2022-09-30T19:26:41.785Z,11.90
2022-09-30T19:30:45.199Z,11.90
2022-09-30T19:34:57.084Z,11.80
2022-09-30T19:39:11.979Z,11.90
2022-09-30T19:43:19.345Z,11.90
2022-09-30T19:47:22.448Z,11.80
2022-09-30T19:51:28.047Z,11.80
2022-09-30T19:55:36.344Z,11.80
2022-09-30T19:59:46.743Z,11.80
2022-09-30T20:03:49.997Z,11.80
2022-09-30T20:07:53.347Z,11.80
2022-09-30T20:11:56.050Z,11.80
2022-09-30T20:16:02.241Z,11.80
2022-09-30T20:20:23.110Z,11.70
2022-09-30T20:24:25.995Z,11.70
2022-09-30T20:28:28.864Z,11.70
2022-09-30T20:32:32.945Z,11.70
2022-09-30T20:36:35.638Z,11.60
2022-09-30T20:40:38.350Z,11.60
2022-09-30T20:44:43.817Z,11.60
2022-09-30T20:48:48.403Z,11.60
2022-09-30T20:52:51.171Z,11.50
2022-09-30T20:57:08.904Z,11.50
2022-09-30T21:01:13.958Z,11.50
2022-09-30T21:05:18.103Z,11.50
2022-09-30T21:09:20.829Z,11.50
2022-09-30T21:13:23.566Z,11.50
2022-09-30T21:17:26.280Z,11.50
2022-09-30T21:21:30.642Z,11.40
2022-09-30T21:25:33.776Z,11.40
2022-09-30T21:29:36.476Z,11.40
2022-09-30T21:33:39.143Z,11.40
2022-09-30T21:37:43.946Z,11.40
2022-09-30T21:41:47.562Z,11.40
2022-09-30T21:45:57.826Z,11.30
2022-09-30T21:50:02.023Z,11.20
2022-09-30T21:54:06.065Z,11.10
2022-09-30T21:58:08.722Z,11.00
2022-09-30T22:02:11.950Z,11.00
2022-09-30T22:06:16.566Z,10.90
2022-09-30T22:10:20.609Z,10.90
2022-09-30T22:14:23.481Z,10.90
2022-09-30T22:18:26.135Z,10.80
2022-09-30T22:22:28.945Z,10.70
2022-09-30T22:26:33.232Z,10.80
2022-09-30T22:30:36.028Z,10.80
2022-09-30T22:34:56.440Z,10.80
2022-09-30T22:38:59.135Z,10.70
2022-09-30T22:43:04.701Z,10.70
2022-09-30T22:47:10.157Z,10.70
2022-09-30T22:51:16.089Z,10.60
2022-09-30T22:55:18.753Z,10.60
2022-09-30T22:59:23.646Z,10.60
2022-09-30T23:03:31.922Z,10.60
2022-09-30T23:07:34.618Z,10.60
2022-09-30T23:11:37.398Z,10.60
2022-09-30T23:15:41.484Z,10.60
2022-09-30T23:19:44.191Z,10.60
2022-09-30T23:23:48.261Z,10.50
2022-09-30T23:27:50.991Z,10.40
2022-09-30T23:31:55.218Z,10.50
2022-09-30T23:35:59.382Z,10.50
2022-09-30T23:40:02.576Z,10.50
2022-09-30T23:44:05.890Z,10.60
2022-09-30T23:48:10.471Z,10.60
2022-09-30T23:52:14.022Z,10.60
2022-09-30T23:56:19.374Z,10.60
